createdAt,value
2022-08-31T00:00:53.638Z,32.00
2022-08-31T00:03:43.067Z,31.50
2022-08-31T00:06:10.420Z,32.10
2022-08-31T00:08:38.546Z,32.00
2022-08-31T00:11:09.851Z,32.50
2022-08-31T00:13:37.642Z,33.60
2022-08-31T00:16:04.671Z,34.00
2022-08-31T00:18:31.786Z,34.60
2022-08-31T00:20:58.815Z,35.00
2022-08-31T00:23:25.950Z,35.10
2022-08-31T00:25:53.240Z,35.20
2022-08-31T00:28:20.454Z,35.10
2022-08-31T00:30:48.092Z,35.60
2022-08-31T00:33:15.092Z,36.20
2022-08-31T00:35:43.969Z,37.30
2022-08-31T00:38:13.214Z,36.50
2022-08-31T00:40:45.353Z,36.70
2022-08-31T00:43:33.347Z,37.60
2022-08-31T00:46:00.578Z,37.50
2022-08-31T00:48:27.796Z,38.70
2022-08-31T00:50:55.650Z,38.60
2022-08-31T00:53:22.904Z,38.30
2022-08-31T00:55:51.772Z,38.40
2022-08-31T00:58:18.861Z,38.70
2022-08-31T01:00:46.658Z,38.90
2022-08-31T01:03:14.462Z,38.70
2022-08-31T01:05:42.346Z,38.70
2022-08-31T01:08:09.555Z,38.50
2022-08-31T01:10:39.888Z,38.70
2022-08-31T01:13:09.016Z,38.60
2022-08-31T01:15:37.821Z,38.10
2022-08-31T01:18:06.727Z,38.80
2022-08-31T01:21:17.250Z,39.20
2022-08-31T01:23:45.478Z,39.40
2022-08-31T01:26:16.797Z,39.70
2022-08-31T01:28:44.151Z,40.00
2022-08-31T01:31:20.427Z,42.10
2022-08-31T01:33:47.573Z,42.00
2022-08-31T01:36:16.250Z,42.00
2022-08-31T01:38:44.493Z,42.00
2022-08-31T01:41:13.897Z,42.00
2022-08-31T01:43:41.823Z,42.30
2022-08-31T01:46:12.684Z,43.70
2022-08-31T01:48:42.532Z,44.40
2022-08-31T01:51:12.746Z,44.20
2022-08-31T01:53:41.354Z,45.30
2022-08-31T01:56:23.038Z,46.20
2022-08-31T01:58:51.163Z,48.80
2022-08-31T02:01:33.250Z,49.80
2022-08-31T02:04:05.662Z,50.60
2022-08-31T02:06:33.688Z,50.70
2022-08-31T02:09:01.293Z,51.10
2022-08-31T02:11:28.360Z,51.70
2022-08-31T02:13:55.344Z,51.70
2022-08-31T02:16:22.701Z,51.70
2022-08-31T02:18:49.676Z,52.70
2022-08-31T02:21:16.627Z,53.30
2022-08-31T02:23:43.842Z,53.50
2022-08-31T02:26:11.830Z,54.20
2022-08-31T02:28:38.707Z,53.60
2022-08-31T02:31:05.933Z,54.50
2022-08-31T02:33:33.002Z,54.70
2022-08-31T02:36:00.429Z,55.40
2022-08-31T02:38:27.529Z,56.60
2022-08-31T02:40:54.417Z,56.80
2022-08-31T02:43:24.925Z,57.40
2022-08-31T02:45:53.810Z,57.30
2022-08-31T02:48:22.471Z,57.50
2022-08-31T02:50:51.499Z,58.60
2022-08-31T02:53:20.870Z,59.70
2022-08-31T02:55:48.408Z,59.40
2022-08-31T02:58:17.794Z,60.00
2022-08-31T03:00:48.275Z,61.00
2022-08-31T03:03:15.880Z,61.10
2022-08-31T03:05:43.011Z,60.40
2022-08-31T03:08:10.060Z,60.50
2022-08-31T03:10:37.302Z,60.90
2022-08-31T03:13:04.755Z,60.90
2022-08-31T03:15:31.984Z,60.90
2022-08-31T03:17:58.951Z,60.90
2022-08-31T03:20:27.458Z,60.90
2022-08-31T03:22:55.228Z,60.90
2022-08-31T03:25:23.119Z,60.90
2022-08-31T03:27:51.295Z,60.80
2022-08-31T03:30:22.919Z,59.70
2022-08-31T03:32:51.104Z,59.80
2022-08-31T03:35:19.422Z,60.00
2022-08-31T03:37:46.360Z,59.40
2022-08-31T03:40:13.752Z,60.60
2022-08-31T03:42:41.690Z,59.80
2022-08-31T03:45:09.614Z,60.70
2022-08-31T03:47:44.602Z,59.20
2022-08-31T03:50:12.622Z,58.40
2022-08-31T03:52:39.665Z,58.30
2022-08-31T03:55:08.155Z,58.70
2022-08-31T03:57:35.337Z,58.20
2022-08-31T04:00:03.543Z,58.80
2022-08-31T04:02:35.451Z,57.60
2022-08-31T04:05:04.687Z,57.70
2022-08-31T04:07:38.378Z,58.00
2022-08-31T04:10:14.245Z,57.30
2022-08-31T04:12:41.485Z,58.30
2022-08-31T04:15:09.423Z,57.40
2022-08-31T04:17:36.874Z,57.40
2022-08-31T04:20:05.258Z,57.70
2022-08-31T04:22:32.212Z,57.50
2022-08-31T04:24:59.148Z,57.40
2022-08-31T04:27:26.171Z,57.30
2022-08-31T04:29:53.373Z,57.40
2022-08-31T04:32:20.986Z,57.30
2022-08-31T04:34:47.926Z,58.20
2022-08-31T04:37:21.143Z,58.10
2022-08-31T04:39:51.226Z,58.00
2022-08-31T04:42:19.376Z,58.00
2022-08-31T04:44:46.546Z,57.50
2022-08-31T04:47:13.452Z,57.70
2022-08-31T04:49:40.395Z,57.30
2022-08-31T04:52:08.345Z,57.60
2022-08-31T04:54:35.315Z,56.20
2022-08-31T04:57:02.384Z,56.20
2022-08-31T04:59:29.302Z,57.10
2022-08-31T05:01:56.412Z,56.10
2022-08-31T05:04:24.692Z,56.00
2022-08-31T05:06:52.056Z,55.50
2022-08-31T05:09:22.619Z,55.60
2022-08-31T05:11:52.067Z,55.20
2022-08-31T05:14:21.428Z,53.40
2022-08-31T05:16:48.623Z,52.60
2022-08-31T05:19:15.679Z,53.10
2022-08-31T05:21:43.465Z,53.00
2022-08-31T05:24:22.691Z,52.50
2022-08-31T05:26:54.519Z,52.40
2022-08-31T05:29:24.214Z,53.10
2022-08-31T05:31:52.621Z,53.00
2022-08-31T05:34:21.579Z,52.40
2022-08-31T05:36:52.266Z,52.50
2022-08-31T05:39:20.754Z,52.30
2022-08-31T05:41:49.299Z,52.80
2022-08-31T05:44:17.520Z,52.50
2022-08-31T05:46:45.043Z,52.70
2022-08-31T05:49:21.597Z,52.60
2022-08-31T05:51:48.602Z,53.20
2022-08-31T05:54:17.623Z,52.60
2022-08-31T05:56:45.004Z,52.70
2022-08-31T05:59:12.707Z,52.60
2022-08-31T06:01:41.227Z,51.60
2022-08-31T06:04:08.964Z,52.60
2022-08-31T06:06:37.196Z,51.80
2022-08-31T06:09:06.331Z,51.10
2022-08-31T06:11:34.887Z,51.10
2022-08-31T06:14:03.769Z,50.20
2022-08-31T06:16:30.803Z,49.30
2022-08-31T06:18:58.990Z,48.70
2022-08-31T06:21:33.904Z,49.10
2022-08-31T06:24:02.301Z,48.30
2022-08-31T06:26:31.939Z,47.00
2022-08-31T06:29:02.027Z,47.80
2022-08-31T06:31:36.097Z,47.40
2022-08-31T06:34:07.279Z,45.70
2022-08-31T06:36:35.364Z,44.90
2022-08-31T06:39:03.582Z,44.40
2022-08-31T06:41:40.814Z,43.20
2022-08-31T06:44:11.419Z,43.90
2022-08-31T06:46:40.206Z,41.90
2022-08-31T06:49:08.637Z,41.40
2022-08-31T06:51:38.088Z,42.20
2022-08-31T06:54:28.612Z,41.40
2022-08-31T06:56:58.686Z,41.40
2022-08-31T06:59:28.911Z,40.40
2022-08-31T07:02:00.613Z,39.70
2022-08-31T07:04:31.146Z,38.50
2022-08-31T07:06:58.101Z,38.00
2022-08-31T07:09:25.107Z,37.90
2022-08-31T07:11:53.644Z,36.10
2022-08-31T07:14:24.262Z,30.30
2022-08-31T07:16:53.317Z,28.20
2022-08-31T07:19:21.979Z,28.10
2022-08-31T07:21:54.636Z,30.50
2022-08-31T07:24:25.261Z,30.40
2022-08-31T07:26:55.071Z,29.30
2022-08-31T07:29:34.120Z,27.30
2022-08-31T07:32:01.258Z,23.40
2022-08-31T07:34:33.560Z,20.30
2022-08-31T07:37:19.527Z,16.80
2022-08-31T07:40:07.852Z,14.00
2022-08-31T07:42:43.353Z,15.20
2022-08-31T07:45:22.664Z,15.70
2022-08-31T07:47:55.311Z,16.30
2022-08-31T07:50:23.579Z,16.50
2022-08-31T07:52:54.490Z,17.50
2022-08-31T07:55:27.324Z,15.80
2022-08-31T07:57:55.281Z,14.40
2022-08-31T08:00:30.708Z,15.30
2022-08-31T08:03:01.692Z,16.80
2022-08-31T08:05:29.268Z,18.80
2022-08-31T08:08:08.407Z,18.30
2022-08-31T08:10:43.971Z,18.30
2022-08-31T08:13:13.735Z,19.40
2022-08-31T08:15:40.840Z,21.30
2022-08-31T08:18:10.770Z,19.40
2022-08-31T08:20:39.022Z,17.90
2022-08-31T08:23:15.622Z,18.40
2022-08-31T08:25:47.252Z,19.00
2022-08-31T08:31:05.908Z,19.80
2022-08-31T08:33:35.688Z,23.40
2022-08-31T08:36:07.525Z,23.50
2022-08-31T08:38:38.058Z,23.10
2022-08-31T08:41:19.170Z,23.00
2022-08-31T08:43:52.668Z,23.60
2022-08-31T08:46:35.434Z,23.20
2022-08-31T08:49:13.272Z,23.60
2022-08-31T08:51:57.305Z,22.10
2022-08-31T08:54:31.987Z,20.50
2022-08-31T08:57:03.368Z,18.00
2022-08-31T08:59:30.310Z,18.80
2022-08-31T09:02:02.150Z,20.50
2022-08-31T09:05:11.097Z,19.00
2022-08-31T09:08:25.035Z,16.90
2022-08-31T09:11:42.182Z,13.20
2022-08-31T09:14:59.901Z,7.40
2022-08-31T09:17:59.679Z,7.90
2022-08-31T09:20:28.405Z,8.00
2022-08-31T09:22:59.240Z,5.30
2022-08-31T09:25:38.929Z,3.70
2022-08-31T09:28:08.674Z,3.20
2022-08-31T09:30:52.428Z,3.30
2022-08-31T09:33:46.716Z,1.00
2022-08-31T09:36:22.899Z,1.00
2022-08-31T09:38:50.123Z,1.00
2022-08-31T09:41:37.590Z,1.00
2022-08-31T09:44:35.333Z,1.00
2022-08-31T09:47:17.938Z,1.00
2022-08-31T09:49:55.268Z,1.00
2022-08-31T09:52:46.887Z,1.00
2022-08-31T09:55:24.949Z,1.00
2022-08-31T09:58:03.122Z,1.00
2022-08-31T10:00:51.253Z,1.00
2022-08-31T10:03:24.283Z,1.00
2022-08-31T10:05:54.659Z,1.00
2022-08-31T10:08:39.705Z,1.00
2022-08-31T10:11:15.986Z,1.00
2022-08-31T10:14:00.332Z,1.00
2022-08-31T10:16:48.150Z,1.00
2022-08-31T10:19:53.637Z,1.00
2022-08-31T10:22:37.235Z,1.00
2022-08-31T10:25:41.545Z,1.00
2022-08-31T10:28:14.745Z,1.00
2022-08-31T10:31:21.261Z,1.00
2022-08-31T10:34:54.720Z,1.00
2022-08-31T10:37:37.025Z,1.00
2022-08-31T10:40:10.262Z,1.00
2022-08-31T10:42:46.893Z,1.00
2022-08-31T10:45:24.770Z,1.00
2022-08-31T10:47:54.683Z,1.00
2022-08-31T10:50:46.058Z,1.00
2022-08-31T10:53:40.460Z,1.00
2022-08-31T10:56:24.130Z,1.00
2022-08-31T10:59:28.073Z,1.00
2022-08-31T11:02:12.861Z,1.00
2022-08-31T11:05:11.300Z,1.00
2022-08-31T11:08:10.142Z,1.00
2022-08-31T11:11:09.129Z,1.00
2022-08-31T11:14:28.077Z,1.00
2022-08-31T11:17:32.340Z,1.00
2022-08-31T11:20:52.178Z,1.00
2022-08-31T11:24:08.075Z,1.00
2022-08-31T11:26:59.509Z,1.00
2022-08-31T11:29:41.718Z,1.00
2022-08-31T11:32:29.024Z,1.00
2022-08-31T11:34:58.951Z,1.00
2022-08-31T11:37:54.579Z,1.00
2022-08-31T11:40:42.325Z,1.00
2022-08-31T11:43:54.749Z,1.00
2022-08-31T11:46:43.205Z,1.00
2022-08-31T11:49:34.681Z,1.00
2022-08-31T11:52:05.785Z,1.00
2022-08-31T11:54:52.958Z,1.00
2022-08-31T11:57:24.876Z,1.00
2022-08-31T11:59:54.069Z,1.00
2022-08-31T12:02:43.827Z,1.00
2022-08-31T12:05:10.989Z,1.00
2022-08-31T12:07:47.542Z,1.00
2022-08-31T12:10:39.816Z,1.00
2022-08-31T12:13:50.756Z,1.00
2022-08-31T12:17:01.067Z,1.00
2022-08-31T12:20:01.579Z,1.00
2022-08-31T12:23:30.727Z,1.00
2022-08-31T12:26:30.497Z,1.00
2022-08-31T12:29:28.708Z,1.00
2022-08-31T12:32:36.057Z,1.00
2022-08-31T12:35:21.335Z,1.00
2022-08-31T12:38:05.404Z,1.00
2022-08-31T12:40:51.199Z,1.00
2022-08-31T12:43:23.386Z,1.00
2022-08-31T12:46:22.660Z,1.00
2022-08-31T12:49:32.850Z,1.00
2022-08-31T12:52:33.639Z,1.00
2022-08-31T12:55:42.821Z,1.00
2022-08-31T12:58:48.436Z,1.00
2022-08-31T13:01:21.161Z,1.00
2022-08-31T13:03:54.313Z,1.00
2022-08-31T13:06:40.864Z,1.00
2022-08-31T13:09:07.980Z,1.00
2022-08-31T13:11:44.054Z,1.00
2022-08-31T13:14:20.063Z,1.00
2022-08-31T13:16:53.411Z,1.00
2022-08-31T13:19:29.549Z,1.00
2022-08-31T13:21:59.432Z,1.00
2022-08-31T13:24:33.010Z,1.00
2022-08-31T13:27:09.218Z,1.00
2022-08-31T13:29:47.309Z,1.00
2022-08-31T13:32:32.512Z,1.00
2022-08-31T13:35:08.396Z,1.00
2022-08-31T13:37:40.616Z,1.00
2022-08-31T13:40:12.691Z,1.00
2022-08-31T13:42:45.751Z,1.00
2022-08-31T13:45:58.025Z,1.00
2022-08-31T13:48:40.721Z,1.00
2022-08-31T13:51:16.349Z,1.00
2022-08-31T13:53:46.611Z,1.00
2022-08-31T13:56:58.994Z,1.00
2022-08-31T13:59:31.488Z,1.00
2022-08-31T14:02:22.484Z,1.00
2022-08-31T14:05:01.230Z,1.00
2022-08-31T14:07:39.413Z,1.00
2022-08-31T14:10:26.408Z,1.00
2022-08-31T14:13:01.035Z,1.00
2022-08-31T14:15:56.374Z,1.00
2022-08-31T14:18:41.265Z,1.00
2022-08-31T14:21:22.748Z,1.00
2022-08-31T14:24:02.120Z,1.00
2022-08-31T14:26:35.165Z,1.00
2022-08-31T14:29:10.552Z,1.00
2022-08-31T14:31:41.451Z,1.00
2022-08-31T14:34:30.338Z,1.00
2022-08-31T14:37:08.725Z,1.00
2022-08-31T14:39:46.056Z,1.00
2022-08-31T14:42:36.384Z,1.00
2022-08-31T14:45:11.181Z,1.00
2022-08-31T14:47:43.924Z,1.00
2022-08-31T14:50:13.555Z,1.00
2022-08-31T14:52:46.034Z,1.00
2022-08-31T14:55:14.344Z,1.00
2022-08-31T14:57:47.001Z,1.00
2022-08-31T15:00:23.209Z,1.00
2022-08-31T15:02:54.790Z,1.00
2022-08-31T15:05:24.755Z,1.00
2022-08-31T15:07:53.270Z,1.00
2022-08-31T15:10:24.357Z,1.00
2022-08-31T15:12:52.554Z,1.00
2022-08-31T15:15:20.784Z,1.00
2022-08-31T15:17:51.483Z,1.00
2022-08-31T15:20:20.148Z,1.00
2022-08-31T15:22:48.381Z,1.00
2022-08-31T15:25:15.790Z,1.00
2022-08-31T15:27:46.673Z,1.00
2022-08-31T15:30:17.510Z,1.00
2022-08-31T15:32:48.885Z,1.00
2022-08-31T15:35:24.536Z,1.00
2022-08-31T15:37:56.426Z,1.00
2022-08-31T15:40:25.265Z,1.00
2022-08-31T15:42:56.006Z,1.00
2022-08-31T15:45:23.601Z,1.00
2022-08-31T15:48:09.351Z,1.00
2022-08-31T15:50:36.345Z,1.00
2022-08-31T15:53:09.405Z,1.00
2022-08-31T15:55:42.742Z,1.00
2022-08-31T15:58:10.304Z,1.00
2022-08-31T16:00:41.671Z,1.00
2022-08-31T16:03:09.129Z,1.00
2022-08-31T16:05:38.893Z,1.00
2022-08-31T16:08:09.994Z,1.00
2022-08-31T16:10:46.782Z,1.00
2022-08-31T16:13:15.856Z,1.00
2022-08-31T16:15:51.050Z,1.00
2022-08-31T16:18:19.850Z,1.00
2022-08-31T16:20:50.063Z,1.00
2022-08-31T16:23:17.727Z,1.00
2022-08-31T16:25:48.866Z,1.00
2022-08-31T16:28:21.007Z,1.00
2022-08-31T16:30:48.592Z,1.00
2022-08-31T16:33:18.181Z,1.00
2022-08-31T16:35:45.864Z,1.00
2022-08-31T16:38:14.026Z,1.00
2022-08-31T16:40:41.851Z,1.00
2022-08-31T16:43:09.059Z,1.00
2022-08-31T16:45:39.586Z,1.00
2022-08-31T16:48:25.352Z,1.00
2022-08-31T16:50:56.351Z,1.00
2022-08-31T16:53:24.645Z,1.00
2022-08-31T16:55:53.517Z,1.00
2022-08-31T16:58:47.629Z,1.00
2022-08-31T17:01:14.546Z,1.00
2022-08-31T17:03:47.112Z,1.00
2022-08-31T17:06:15.766Z,1.00
2022-08-31T17:08:46.193Z,1.00
2022-08-31T17:11:25.310Z,1.00
2022-08-31T17:13:58.336Z,1.00
2022-08-31T17:16:37.505Z,1.00
2022-08-31T17:19:08.354Z,1.00
2022-08-31T17:21:49.077Z,1.00
2022-08-31T17:24:24.285Z,1.00
2022-08-31T17:26:59.531Z,1.00
2022-08-31T17:29:31.340Z,1.00
2022-08-31T17:32:01.372Z,1.00
2022-08-31T17:34:31.175Z,1.00
2022-08-31T17:37:00.619Z,1.00
2022-08-31T17:39:28.429Z,1.00
2022-08-31T17:41:56.059Z,1.00
2022-08-31T17:44:26.512Z,1.00
2022-08-31T17:46:53.919Z,1.00
2022-08-31T17:49:23.659Z,1.00
2022-08-31T17:51:51.805Z,1.00
2022-08-31T17:54:30.199Z,1.00
2022-08-31T17:57:00.553Z,1.00
2022-08-31T17:59:31.370Z,1.00
2022-08-31T18:02:01.646Z,1.00
2022-08-31T18:04:30.239Z,1.00
2022-08-31T18:06:57.838Z,1.00
2022-08-31T18:09:27.753Z,1.00
2022-08-31T18:11:55.161Z,1.00
2022-08-31T18:14:24.828Z,1.00
2022-08-31T18:16:54.250Z,1.00
2022-08-31T18:19:27.873Z,1.00
2022-08-31T18:21:56.560Z,1.00
2022-08-31T18:24:23.599Z,1.00
2022-08-31T18:26:52.393Z,1.00
2022-08-31T18:29:24.293Z,1.00
2022-08-31T18:31:53.961Z,1.00
2022-08-31T18:34:24.419Z,1.00
2022-08-31T18:36:55.151Z,1.00
2022-08-31T18:39:49.969Z,1.00
2022-08-31T18:42:32.317Z,1.00
2022-08-31T18:45:19.401Z,1.00
2022-08-31T18:48:13.621Z,1.00
2022-08-31T18:50:37.097Z,1.00
2022-08-31T18:53:11.156Z,1.00
2022-08-31T18:55:43.491Z,1.00
2022-08-31T18:58:10.483Z,1.00
2022-08-31T19:00:37.729Z,1.00
2022-08-31T19:03:05.973Z,1.00
2022-08-31T19:05:33.045Z,1.00
2022-08-31T19:08:00.510Z,1.00
2022-08-31T19:10:27.875Z,1.00
2022-08-31T19:12:57.838Z,1.00
2022-08-31T19:15:31.529Z,1.00
2022-08-31T19:18:05.328Z,1.00
2022-08-31T19:20:34.417Z,1.00
2022-08-31T19:23:01.383Z,1.00
2022-08-31T19:25:28.535Z,1.00
2022-08-31T19:27:55.694Z,1.00
2022-08-31T19:30:27.885Z,1.00
2022-08-31T19:32:56.609Z,1.00
2022-08-31T19:35:26.717Z,1.00
2022-08-31T19:37:56.482Z,1.00
2022-08-31T19:40:42.662Z,1.00
2022-08-31T19:46:09.671Z,1.00
2022-08-31T19:48:44.034Z,1.00
2022-08-31T19:51:17.291Z,1.00
2022-08-31T19:53:45.272Z,1.00
2022-08-31T19:56:17.443Z,1.00
2022-08-31T19:58:49.250Z,1.00
2022-08-31T20:01:18.639Z,1.00
2022-08-31T20:03:48.181Z,1.00
2022-08-31T20:06:19.293Z,1.00
2022-08-31T20:08:48.395Z,1.00
2022-08-31T20:11:21.769Z,1.00
2022-08-31T20:13:49.461Z,1.00
2022-08-31T20:16:17.452Z,1.00
2022-08-31T20:18:48.680Z,1.00
2022-08-31T20:21:18.636Z,1.00
2022-08-31T20:23:50.112Z,1.00
2022-08-31T20:26:23.358Z,1.00
2022-08-31T20:28:59.010Z,1.00
2022-08-31T20:31:27.609Z,1.00
2022-08-31T20:33:58.060Z,1.00
2022-08-31T20:36:28.080Z,1.00
2022-08-31T20:39:07.852Z,1.00
2022-08-31T20:41:38.655Z,1.00
2022-08-31T20:44:11.748Z,1.00
2022-08-31T20:47:26.058Z,1.00
2022-08-31T20:49:56.608Z,1.00
2022-08-31T20:52:39.143Z,1.00
2022-08-31T20:55:07.559Z,1.00
2022-08-31T20:57:38.941Z,1.00
2022-08-31T21:00:10.226Z,1.00
2022-08-31T21:02:39.812Z,1.00
2022-08-31T21:05:36.661Z,1.00
2022-08-31T21:07:57.500Z,1.00
2022-08-31T21:10:36.173Z,1.00
2022-08-31T21:13:05.199Z,1.00
2022-08-31T21:15:32.812Z,1.00
2022-08-31T21:17:59.691Z,1.00
2022-08-31T21:20:26.927Z,1.00
2022-08-31T21:22:53.944Z,1.00
2022-08-31T21:25:21.041Z,1.00
2022-08-31T21:27:47.852Z,1.00
2022-08-31T21:30:15.459Z,1.00
2022-08-31T21:32:42.660Z,1.00
2022-08-31T21:35:12.081Z,1.00
2022-08-31T21:37:40.339Z,1.00
2022-08-31T21:40:08.139Z,1.00
2022-08-31T21:42:35.141Z,1.00
2022-08-31T21:45:02.186Z,1.00
2022-08-31T21:47:29.252Z,1.00
2022-08-31T21:49:56.107Z,1.00
2022-08-31T21:52:23.144Z,1.00
2022-08-31T21:54:51.551Z,1.00
2022-08-31T21:57:18.518Z,1.00
2022-08-31T21:59:45.369Z,1.00
2022-08-31T22:02:12.519Z,1.00
2022-08-31T22:04:42.582Z,1.00
2022-08-31T22:07:10.300Z,1.00
2022-08-31T22:09:37.789Z,1.00
2022-08-31T22:12:07.176Z,1.00
2022-08-31T22:14:38.756Z,1.00
2022-08-31T22:17:07.041Z,1.00
2022-08-31T22:19:37.888Z,1.00
2022-08-31T22:22:09.243Z,1.00
2022-08-31T22:24:40.323Z,1.00
2022-08-31T22:27:09.160Z,1.00
2022-08-31T22:29:38.139Z,1.00
2022-08-31T22:32:10.044Z,1.00
2022-08-31T22:34:37.885Z,1.00
2022-08-31T22:37:05.237Z,1.00
2022-08-31T22:39:33.119Z,1.00
2022-08-31T22:42:01.486Z,1.00
2022-08-31T22:44:34.186Z,1.00
2022-08-31T22:47:02.363Z,1.00
2022-08-31T22:49:29.407Z,1.00
2022-08-31T22:51:57.022Z,1.00
2022-08-31T22:54:24.906Z,1.00
2022-08-31T22:56:52.184Z,1.00
2022-08-31T22:59:27.023Z,1.00
2022-08-31T23:01:57.135Z,1.00
2022-08-31T23:04:26.902Z,1.00
2022-08-31T23:06:56.356Z,1.00
2022-08-31T23:09:27.771Z,1.00
2022-08-31T23:11:56.435Z,1.00
2022-08-31T23:14:24.455Z,1.00
2022-08-31T23:16:58.841Z,1.00
2022-08-31T23:19:33.042Z,1.00
2022-08-31T23:22:01.963Z,1.00
2022-08-31T23:24:37.451Z,1.00
2022-08-31T23:27:07.380Z,1.00
2022-08-31T23:29:40.162Z,1.00
2022-08-31T23:32:12.052Z,1.00
2022-08-31T23:34:40.105Z,1.00
2022-08-31T23:37:08.735Z,1.00
2022-08-31T23:39:38.209Z,1.00
2022-08-31T23:42:06.416Z,1.00
2022-08-31T23:44:36.215Z,1.00
2022-08-31T23:47:03.231Z,1.00
2022-08-31T23:49:30.167Z,1.00
2022-08-31T23:51:57.039Z,1.00
2022-08-31T23:54:25.025Z,1.00
2022-08-31T23:56:56.943Z,1.00
2022-08-31T23:59:25.192Z,1.00
